sensor_id;sensor_type;location;lat;lon;timestamp;noise_LAeq;noise_LA_min;noise_LA_max;noise_LA01;noise_LA95
72160;Laerm;60045;51.792;10.938;2023-07-31T00:00:26;32.98;27.77;36.62;;
72160;Laerm;60045;51.792;10.938;2023-07-31T00:02:52;32.36;27.63;36.98;;
72160;Laerm;60045;51.792;10.938;2023-07-31T00:05:18;33.00;27.74;39.00;;
72160;Laerm;60045;51.792;10.938;2023-07-31T00:07:43;32.66;27.82;42.40;;
72160;Laerm;60045;51.792;10.938;2023-07-31T00:10:09;32.40;27.51;35.23;;
72160;Laerm;60045;51.792;10.938;2023-07-31T00:12:35;32.04;27.26;33.82;;
72160;Laerm;60045;51.792;10.938;2023-07-31T00:15:01;32.00;27.13;33.77;;
72160;Laerm;60045;51.792;10.938;2023-07-31T00:17:27;32.62;27.39;34.16;;
72160;Laerm;60045;51.792;10.938;2023-07-31T00:19:53;32.58;27.40;34.94;;
72160;Laerm;60045;51.792;10.938;2023-07-31T00:22:19;32.37;27.29;34.20;;
72160;Laerm;60045;51.792;10.938;2023-07-31T00:24:45;32.36;27.18;33.83;;
72160;Laerm;60045;51.792;10.938;2023-07-31T00:27:11;33.09;27.35;39.18;;
72160;Laerm;60045;51.792;10.938;2023-07-31T00:29:36;32.52;27.37;34.80;;
72160;Laerm;60045;51.792;10.938;2023-07-31T00:32:02;32.53;27.50;36.48;;
72160;Laerm;60045;51.792;10.938;2023-07-31T00:34:28;32.99;28.22;34.69;;
72160;Laerm;60045;51.792;10.938;2023-07-31T00:36:54;35.42;29.76;39.67;;
72160;Laerm;60045;51.792;10.938;2023-07-31T00:39:20;52.02;33.09;67.31;;
72160;Laerm;60045;51.792;10.938;2023-07-31T00:41:45;48.78;33.05;67.60;;
72160;Laerm;60045;51.792;10.938;2023-07-31T00:44:11;35.80;33.08;42.12;;
72160;Laerm;60045;51.792;10.938;2023-07-31T00:46:37;37.86;35.19;41.11;;
72160;Laerm;60045;51.792;10.938;2023-07-31T00:49:03;38.28;33.98;43.26;;
72160;Laerm;60045;51.792;10.938;2023-07-31T00:51:29;39.88;34.74;45.67;;
72160;Laerm;60045;51.792;10.938;2023-07-31T00:53:55;38.63;35.49;46.71;;
72160;Laerm;60045;51.792;10.938;2023-07-31T00:56:21;63.00;35.30;80.46;;
72160;Laerm;60045;51.792;10.938;2023-07-31T00:58:47;37.89;34.69;41.66;;
72160;Laerm;60045;51.792;10.938;2023-07-31T01:01:13;52.45;34.47;68.51;;
72160;Laerm;60045;51.792;10.938;2023-07-31T01:03:39;38.33;33.68;43.86;;
72160;Laerm;60045;51.792;10.938;2023-07-31T01:06:10;37.36;34.10;44.18;;
72160;Laerm;60045;51.792;10.938;2023-07-31T01:08:41;53.56;35.85;69.44;;
72160;Laerm;60045;51.792;10.938;2023-07-31T01:11:17;46.99;35.33;68.87;;
72160;Laerm;60045;51.792;10.938;2023-07-31T01:13:45;37.00;35.42;40.69;;
72160;Laerm;60045;51.792;10.938;2023-07-31T01:16:11;37.93;35.88;43.41;;
72160;Laerm;60045;51.792;10.938;2023-07-31T01:18:37;49.65;36.52;65.25;;
72160;Laerm;60045;51.792;10.938;2023-07-31T01:26:34;37.20;35.16;39.75;;
72160;Laerm;60045;51.792;10.938;2023-07-31T01:29:04;62.88;34.63;79.28;;
72160;Laerm;60045;51.792;10.938;2023-07-31T01:31:32;55.67;33.99;74.36;;
72160;Laerm;60045;51.792;10.938;2023-07-31T01:34:00;35.23;33.15;41.77;;
72160;Laerm;60045;51.792;10.938;2023-07-31T01:36:26;34.97;32.00;45.44;;
72160;Laerm;60045;51.792;10.938;2023-07-31T01:38:52;52.13;31.90;68.31;;
72160;Laerm;60045;51.792;10.938;2023-07-31T01:41:18;35.67;32.12;46.08;;
72160;Laerm;60045;51.792;10.938;2023-07-31T01:43:44;36.56;34.19;47.03;;
72160;Laerm;60045;51.792;10.938;2023-07-31T01:46:10;36.42;33.91;44.30;;
72160;Laerm;60045;51.792;10.938;2023-07-31T01:48:36;36.14;33.15;48.33;;
72160;Laerm;60045;51.792;10.938;2023-07-31T01:51:02;34.16;31.35;43.29;;
72160;Laerm;60045;51.792;10.938;2023-07-31T01:53:28;32.44;31.21;36.34;;
72160;Laerm;60045;51.792;10.938;2023-07-31T01:55:54;34.02;31.35;46.21;;
72160;Laerm;60045;51.792;10.938;2023-07-31T01:58:20;33.00;31.14;43.08;;
72160;Laerm;60045;51.792;10.938;2023-07-31T02:00:46;63.54;31.36;81.36;;
72160;Laerm;60045;51.792;10.938;2023-07-31T02:03:11;53.83;32.29;71.44;;
72160;Laerm;60045;51.792;10.938;2023-07-31T02:05:43;35.23;31.26;46.77;;
72160;Laerm;60045;51.792;10.938;2023-07-31T02:08:09;34.79;32.04;40.86;;
72160;Laerm;60045;51.792;10.938;2023-07-31T02:10:35;34.77;31.97;43.47;;
72160;Laerm;60045;51.792;10.938;2023-07-31T02:13:01;64.50;34.06;81.53;;
72160;Laerm;60045;51.792;10.938;2023-07-31T02:15:29;52.02;34.99;65.99;;
72160;Laerm;60045;51.792;10.938;2023-07-31T02:17:54;37.58;34.80;49.82;;
72160;Laerm;60045;51.792;10.938;2023-07-31T02:20:20;36.18;33.14;41.57;;
72160;Laerm;60045;51.792;10.938;2023-07-31T02:22:46;36.38;32.79;43.64;;
72160;Laerm;60045;51.792;10.938;2023-07-31T02:25:12;35.97;31.56;43.57;;
72160;Laerm;60045;51.792;10.938;2023-07-31T02:27:37;35.48;32.41;43.57;;
72160;Laerm;60045;51.792;10.938;2023-07-31T02:30:03;64.82;33.06;82.96;;
72160;Laerm;60045;51.792;10.938;2023-07-31T02:32:29;58.48;35.38;74.44;;
72160;Laerm;60045;51.792;10.938;2023-07-31T02:34:55;37.25;32.79;48.19;;
72160;Laerm;60045;51.792;10.938;2023-07-31T02:37:20;51.71;34.12;68.96;;
72160;Laerm;60045;51.792;10.938;2023-07-31T02:39:46;58.02;35.36;73.51;;
72160;Laerm;60045;51.792;10.938;2023-07-31T02:42:12;58.20;35.95;73.40;;
72160;Laerm;60045;51.792;10.938;2023-07-31T02:44:38;38.43;35.17;52.57;;
72160;Laerm;60045;51.792;10.938;2023-07-31T02:47:04;38.62;34.10;46.23;;
72160;Laerm;60045;51.792;10.938;2023-07-31T02:49:30;37.78;34.86;50.03;;
72160;Laerm;60045;51.792;10.938;2023-07-31T02:51:55;39.02;35.35;50.20;;
72160;Laerm;60045;51.792;10.938;2023-07-31T02:54:21;57.07;35.55;74.32;;
72160;Laerm;60045;51.792;10.938;2023-07-31T02:56:47;55.38;35.60;70.28;;
72160;Laerm;60045;51.792;10.938;2023-07-31T02:59:13;55.49;35.10;70.77;;
72160;Laerm;60045;51.792;10.938;2023-07-31T03:01:39;54.12;35.63;71.01;;
72160;Laerm;60045;51.792;10.938;2023-07-31T03:04:05;56.32;35.94;73.76;;
72160;Laerm;60045;51.792;10.938;2023-07-31T03:06:30;56.10;35.19;68.83;;
72160;Laerm;60045;51.792;10.938;2023-07-31T03:08:56;51.52;34.40;68.62;;
72160;Laerm;60045;51.792;10.938;2023-07-31T03:11:22;55.17;35.62;71.02;;
72160;Laerm;60045;51.792;10.938;2023-07-31T03:13:48;60.09;36.91;74.30;;
72160;Laerm;60045;51.792;10.938;2023-07-31T03:16:13;63.29;39.41;77.57;;
72160;Laerm;60045;51.792;10.938;2023-07-31T03:18:39;62.30;36.62;73.96;;
72160;Laerm;60045;51.792;10.938;2023-07-31T03:21:05;58.23;37.17;73.77;;
72160;Laerm;60045;51.792;10.938;2023-07-31T03:23:31;64.86;37.29;81.38;;
72160;Laerm;60045;51.792;10.938;2023-07-31T03:28:22;60.70;35.30;74.55;;
72160;Laerm;60045;51.792;10.938;2023-07-31T03:30:48;58.88;35.71;73.34;;
72160;Laerm;60045;51.792;10.938;2023-07-31T03:33:14;62.13;36.25;76.18;;
72160;Laerm;60045;51.792;10.938;2023-07-31T03:35:39;60.68;34.03;75.45;;
72160;Laerm;60045;51.792;10.938;2023-07-31T03:38:05;60.10;35.03;72.29;;
72160;Laerm;60045;51.792;10.938;2023-07-31T03:40:31;66.24;38.84;80.27;;
72160;Laerm;60045;51.792;10.938;2023-07-31T03:42:56;60.82;34.90;73.82;;
72160;Laerm;60045;51.792;10.938;2023-07-31T03:45:22;54.67;35.95;71.72;;
72160;Laerm;60045;51.792;10.938;2023-07-31T03:47:48;62.13;33.66;75.09;;
72160;Laerm;60045;51.792;10.938;2023-07-31T03:50:14;60.34;34.66;76.99;;
72160;Laerm;60045;51.792;10.938;2023-07-31T03:52:41;58.18;34.83;70.59;;
72160;Laerm;60045;51.792;10.938;2023-07-31T03:55:06;59.64;35.42;72.15;;
72160;Laerm;60045;51.792;10.938;2023-07-31T03:57:32;58.32;34.73;72.05;;
72160;Laerm;60045;51.792;10.938;2023-07-31T03:59:58;62.92;36.54;76.55;;
72160;Laerm;60045;51.792;10.938;2023-07-31T04:02:24;66.36;38.58;82.40;;
72160;Laerm;60045;51.792;10.938;2023-07-31T04:04:50;59.96;36.79;75.32;;
72160;Laerm;60045;51.792;10.938;2023-07-31T04:07:15;62.10;37.67;75.06;;
72160;Laerm;60045;51.792;10.938;2023-07-31T04:09:41;62.69;36.07;76.47;;
72160;Laerm;60045;51.792;10.938;2023-07-31T04:12:07;59.73;36.06;74.57;;
72160;Laerm;60045;51.792;10.938;2023-07-31T04:14:33;59.23;36.39;70.86;;
72160;Laerm;60045;51.792;10.938;2023-07-31T04:16:58;62.12;36.17;76.20;;
72160;Laerm;60045;51.792;10.938;2023-07-31T04:19:24;55.81;37.41;73.47;;
72160;Laerm;60045;51.792;10.938;2023-07-31T04:21:50;62.94;37.88;74.96;;
72160;Laerm;60045;51.792;10.938;2023-07-31T04:24:16;68.22;37.56;81.67;;
72160;Laerm;60045;51.792;10.938;2023-07-31T04:26:47;65.98;36.15;81.33;;
72160;Laerm;60045;51.792;10.938;2023-07-31T04:29:13;67.76;35.11;82.33;;
72160;Laerm;60045;51.792;10.938;2023-07-31T04:31:38;55.56;35.62;70.43;;
72160;Laerm;60045;51.792;10.938;2023-07-31T04:34:04;62.54;37.36;74.98;;
72160;Laerm;60045;51.792;10.938;2023-07-31T04:36:30;65.85;37.40;79.05;;
72160;Laerm;60045;51.792;10.938;2023-07-31T04:38:56;66.65;40.57;80.31;;
72160;Laerm;60045;51.792;10.938;2023-07-31T04:41:21;60.44;36.01;72.90;;
72160;Laerm;60045;51.792;10.938;2023-07-31T04:43:47;62.67;38.33;77.29;;
72160;Laerm;60045;51.792;10.938;2023-07-31T04:46:13;66.96;41.49;78.42;;
72160;Laerm;60045;51.792;10.938;2023-07-31T04:48:39;64.59;40.23;77.93;;
72160;Laerm;60045;51.792;10.938;2023-07-31T04:51:04;64.51;40.50;79.10;;
72160;Laerm;60045;51.792;10.938;2023-07-31T04:53:30;63.54;39.26;76.73;;
72160;Laerm;60045;51.792;10.938;2023-07-31T04:55:56;65.48;38.59;79.96;;
72160;Laerm;60045;51.792;10.938;2023-07-31T04:58:22;61.96;36.86;76.69;;
72160;Laerm;60045;51.792;10.938;2023-07-31T05:00:47;66.39;38.17;81.01;;
72160;Laerm;60045;51.792;10.938;2023-07-31T05:03:13;59.44;35.94;73.95;;
72160;Laerm;60045;51.792;10.938;2023-07-31T05:05:39;67.65;37.15;82.22;;
72160;Laerm;60045;51.792;10.938;2023-07-31T05:08:05;65.79;39.74;79.62;;
72160;Laerm;60045;51.792;10.938;2023-07-31T05:10:30;69.91;42.21;80.09;;
72160;Laerm;60045;51.792;10.938;2023-07-31T05:12:56;66.33;36.97;79.87;;
72160;Laerm;60045;51.792;10.938;2023-07-31T05:15:22;63.30;33.84;77.99;;
72160;Laerm;60045;51.792;10.938;2023-07-31T05:17:48;57.64;33.18;75.90;;
72160;Laerm;60045;51.792;10.938;2023-07-31T05:20:14;67.32;33.33;81.99;;
72160;Laerm;60045;51.792;10.938;2023-07-31T05:22:40;56.71;33.19;70.94;;
72160;Laerm;60045;51.792;10.938;2023-07-31T05:25:06;62.92;35.54;73.40;;
72160;Laerm;60045;51.792;10.938;2023-07-31T05:27:32;57.93;35.08;71.93;;
72160;Laerm;60045;51.792;10.938;2023-07-31T05:29:58;59.70;32.98;73.15;;
72160;Laerm;60045;51.792;10.938;2023-07-31T05:32:23;62.12;33.49;76.59;;
72160;Laerm;60045;51.792;10.938;2023-07-31T05:34:52;60.74;34.89;75.34;;
72160;Laerm;60045;51.792;10.938;2023-07-31T05:37:18;66.62;41.00;79.94;;
72160;Laerm;60045;51.792;10.938;2023-07-31T05:39:44;62.55;34.91;77.76;;
72160;Laerm;60045;51.792;10.938;2023-07-31T05:42:10;61.39;33.10;78.74;;
72160;Laerm;60045;51.792;10.938;2023-07-31T05:44:35;67.81;33.52;82.94;;
72160;Laerm;60045;51.792;10.938;2023-07-31T05:47:01;60.04;32.43;72.49;;
72160;Laerm;60045;51.792;10.938;2023-07-31T05:49:27;64.10;35.53;77.45;;
72160;Laerm;60045;51.792;10.938;2023-07-31T05:51:53;61.94;35.81;75.48;;
72160;Laerm;60045;51.792;10.938;2023-07-31T05:54:19;58.81;32.42;72.29;;
72160;Laerm;60045;51.792;10.938;2023-07-31T05:56:44;60.74;31.44;78.19;;
72160;Laerm;60045;51.792;10.938;2023-07-31T05:59:12;66.51;35.63;80.55;;
72160;Laerm;60045;51.792;10.938;2023-07-31T06:01:38;61.60;35.48;74.89;;
72160;Laerm;60045;51.792;10.938;2023-07-31T06:04:03;61.38;37.89;75.17;;
72160;Laerm;60045;51.792;10.938;2023-07-31T06:06:29;61.98;35.73;71.54;;
72160;Laerm;60045;51.792;10.938;2023-07-31T06:08:55;62.48;36.13;78.80;;
72160;Laerm;60045;51.792;10.938;2023-07-31T06:11:21;64.16;34.88;78.10;;
72160;Laerm;60045;51.792;10.938;2023-07-31T06:13:47;64.74;34.86;80.17;;
72160;Laerm;60045;51.792;10.938;2023-07-31T06:16:14;64.99;35.28;75.57;;
72160;Laerm;60045;51.792;10.938;2023-07-31T06:18:40;60.15;37.68;71.84;;
72160;Laerm;60045;51.792;10.938;2023-07-31T06:21:06;65.29;36.22;79.17;;
72160;Laerm;60045;51.792;10.938;2023-07-31T06:23:32;59.41;37.24;74.04;;
72160;Laerm;60045;51.792;10.938;2023-07-31T06:25:57;60.05;34.14;72.74;;
72160;Laerm;60045;51.792;10.938;2023-07-31T06:28:29;60.05;34.16;71.65;;
72160;Laerm;60045;51.792;10.938;2023-07-31T06:30:56;63.14;35.98;79.29;;
72160;Laerm;60045;51.792;10.938;2023-07-31T06:33:22;58.74;33.67;73.09;;
72160;Laerm;60045;51.792;10.938;2023-07-31T06:35:48;63.39;35.41;76.49;;
72160;Laerm;60045;51.792;10.938;2023-07-31T06:38:13;67.15;38.08;82.14;;
72160;Laerm;60045;51.792;10.938;2023-07-31T06:40:39;65.36;37.11;79.30;;
72160;Laerm;60045;51.792;10.938;2023-07-31T06:43:05;68.52;38.70;80.38;;
72160;Laerm;60045;51.792;10.938;2023-07-31T06:45:34;56.22;35.82;69.27;;
72160;Laerm;60045;51.792;10.938;2023-07-31T06:48:00;63.19;38.25;72.08;;
72160;Laerm;60045;51.792;10.938;2023-07-31T06:50:27;57.33;35.86;72.11;;
72160;Laerm;60045;51.792;10.938;2023-07-31T06:52:53;64.85;36.57;80.97;;
72160;Laerm;60045;51.792;10.938;2023-07-31T06:55:19;49.35;33.06;70.96;;
72160;Laerm;60045;51.792;10.938;2023-07-31T06:57:47;64.69;35.28;80.22;;
72160;Laerm;60045;51.792;10.938;2023-07-31T07:00:13;58.20;33.58;73.81;;
72160;Laerm;60045;51.792;10.938;2023-07-31T07:02:39;64.83;35.65;79.68;;
72160;Laerm;60045;51.792;10.938;2023-07-31T07:05:04;64.36;36.13;79.71;;
72160;Laerm;60045;51.792;10.938;2023-07-31T07:07:30;63.83;35.38;75.26;;
72160;Laerm;60045;51.792;10.938;2023-07-31T07:09:56;47.60;31.86;62.99;;
72160;Laerm;60045;51.792;10.938;2023-07-31T07:12:24;59.69;31.91;75.21;;
72160;Laerm;60045;51.792;10.938;2023-07-31T07:14:50;65.62;35.87;81.85;;
72160;Laerm;60045;51.792;10.938;2023-07-31T07:17:18;62.53;36.07;77.60;;
72160;Laerm;60045;51.792;10.938;2023-07-31T07:19:43;58.99;32.90;71.87;;
72160;Laerm;60045;51.792;10.938;2023-07-31T07:22:10;67.42;38.66;82.23;;
72160;Laerm;60045;51.792;10.938;2023-07-31T07:24:36;67.31;37.90;83.16;;
72160;Laerm;60045;51.792;10.938;2023-07-31T07:27:02;62.07;36.32;75.47;;
72160;Laerm;60045;51.792;10.938;2023-07-31T07:29:28;61.66;38.04;73.25;;
72160;Laerm;60045;51.792;10.938;2023-07-31T07:31:54;62.50;36.51;77.30;;
72160;Laerm;60045;51.792;10.938;2023-07-31T07:34:19;61.91;39.01;75.77;;
72160;Laerm;60045;51.792;10.938;2023-07-31T07:36:47;61.95;38.14;76.71;;
72160;Laerm;60045;51.792;10.938;2023-07-31T07:39:14;61.68;39.12;73.55;;
72160;Laerm;60045;51.792;10.938;2023-07-31T07:41:40;58.74;34.91;73.79;;
72160;Laerm;60045;51.792;10.938;2023-07-31T07:44:06;63.14;36.71;73.99;;
72160;Laerm;60045;51.792;10.938;2023-07-31T07:46:31;62.31;36.10;75.48;;
72160;Laerm;60045;51.792;10.938;2023-07-31T07:48:57;55.77;35.20;71.21;;
72160;Laerm;60045;51.792;10.938;2023-07-31T07:51:23;60.65;33.43;72.16;;
72160;Laerm;60045;51.792;10.938;2023-07-31T07:53:48;64.85;35.87;80.67;;
72160;Laerm;60045;51.792;10.938;2023-07-31T07:56:14;62.36;38.55;74.59;;
72160;Laerm;60045;51.792;10.938;2023-07-31T07:58:40;59.49;34.58;74.17;;
72160;Laerm;60045;51.792;10.938;2023-07-31T08:01:06;51.14;34.40;66.83;;
72160;Laerm;60045;51.792;10.938;2023-07-31T08:03:31;60.06;34.54;72.19;;
72160;Laerm;60045;51.792;10.938;2023-07-31T08:06:01;60.21;36.30;73.90;;
72160;Laerm;60045;51.792;10.938;2023-07-31T08:08:27;59.85;38.30;71.55;;
72160;Laerm;60045;51.792;10.938;2023-07-31T08:10:53;62.39;37.47;77.78;;
72160;Laerm;60045;51.792;10.938;2023-07-31T08:13:19;59.11;38.17;74.26;;
72160;Laerm;60045;51.792;10.938;2023-07-31T08:15:44;59.22;37.24;72.01;;
72160;Laerm;60045;51.792;10.938;2023-07-31T08:18:11;61.95;37.65;74.36;;
72160;Laerm;60045;51.792;10.938;2023-07-31T08:20:37;60.90;38.81;74.61;;
72160;Laerm;60045;51.792;10.938;2023-07-31T08:23:03;65.62;38.74;82.91;;
72160;Laerm;60045;51.792;10.938;2023-07-31T08:25:29;57.82;38.99;69.99;;
72160;Laerm;60045;51.792;10.938;2023-07-31T08:27:55;61.41;40.04;75.70;;
72160;Laerm;60045;51.792;10.938;2023-07-31T08:30:20;67.06;44.89;80.29;;
72160;Laerm;60045;51.792;10.938;2023-07-31T08:32:46;65.84;40.04;77.63;;
72160;Laerm;60045;51.792;10.938;2023-07-31T08:35:12;64.09;38.15;81.90;;
72160;Laerm;60045;51.792;10.938;2023-07-31T08:37:38;59.37;35.63;72.76;;
72160;Laerm;60045;51.792;10.938;2023-07-31T08:40:04;65.91;36.54;81.25;;
72160;Laerm;60045;51.792;10.938;2023-07-31T08:42:31;61.76;38.90;75.63;;
72160;Laerm;60045;51.792;10.938;2023-07-31T08:44:57;63.69;39.31;76.60;;
72160;Laerm;60045;51.792;10.938;2023-07-31T08:47:25;62.25;40.92;73.46;;
72160;Laerm;60045;51.792;10.938;2023-07-31T08:49:51;59.50;37.31;72.27;;
72160;Laerm;60045;51.792;10.938;2023-07-31T08:52:18;60.83;37.38;72.44;;
72160;Laerm;60045;51.792;10.938;2023-07-31T08:54:44;60.47;36.62;72.19;;
72160;Laerm;60045;51.792;10.938;2023-07-31T08:57:09;63.63;40.92;73.94;;
72160;Laerm;60045;51.792;10.938;2023-07-31T08:59:36;62.04;39.68;73.24;;
72160;Laerm;60045;51.792;10.938;2023-07-31T09:02:04;57.72;34.60;71.18;;
72160;Laerm;60045;51.792;10.938;2023-07-31T09:04:31;58.07;37.76;70.38;;
72160;Laerm;60045;51.792;10.938;2023-07-31T09:06:57;65.52;34.10;80.81;;
72160;Laerm;60045;51.792;10.938;2023-07-31T09:09:25;64.14;36.23;81.88;;
72160;Laerm;60045;51.792;10.938;2023-07-31T09:11:51;59.41;37.73;70.74;;
72160;Laerm;60045;51.792;10.938;2023-07-31T09:14:17;65.63;36.54;78.81;;
72160;Laerm;60045;51.792;10.938;2023-07-31T09:16:53;58.44;36.43;72.17;;
72160;Laerm;60045;51.792;10.938;2023-07-31T09:19:29;65.31;41.33;79.41;;
72160;Laerm;60045;51.792;10.938;2023-07-31T09:21:55;59.08;34.23;72.85;;
72160;Laerm;60045;51.792;10.938;2023-07-31T09:24:27;62.85;36.84;73.35;;
72160;Laerm;60045;51.792;10.938;2023-07-31T09:26:54;61.83;35.99;73.62;;
72160;Laerm;60045;51.792;10.938;2023-07-31T09:29:21;60.71;35.23;74.11;;
72160;Laerm;60045;51.792;10.938;2023-07-31T09:31:47;50.72;37.29;66.13;;
72160;Laerm;60045;51.792;10.938;2023-07-31T09:34:13;59.36;35.64;72.17;;
72160;Laerm;60045;51.792;10.938;2023-07-31T09:36:45;65.30;36.23;78.80;;
72160;Laerm;60045;51.792;10.938;2023-07-31T09:39:12;59.85;36.77;73.93;;
72160;Laerm;60045;51.792;10.938;2023-07-31T09:41:38;60.64;37.09;71.44;;
72160;Laerm;60045;51.792;10.938;2023-07-31T09:44:05;62.51;39.71;76.44;;
72160;Laerm;60045;51.792;10.938;2023-07-31T09:46:30;63.83;41.02;79.06;;
72160;Laerm;60045;51.792;10.938;2023-07-31T09:49:12;63.07;42.41;73.00;;
72160;Laerm;60045;51.792;10.938;2023-07-31T09:51:39;61.27;36.45;76.98;;
72160;Laerm;60045;51.792;10.938;2023-07-31T09:56:44;57.85;36.44;75.40;;
72160;Laerm;60045;51.792;10.938;2023-07-31T09:59:13;65.05;38.34;79.92;;
72160;Laerm;60045;51.792;10.938;2023-07-31T10:01:39;58.67;39.25;72.99;;
72160;Laerm;60045;51.792;10.938;2023-07-31T10:04:06;65.13;41.31;80.30;;
72160;Laerm;60045;51.792;10.938;2023-07-31T10:06:33;63.08;39.58;77.52;;
72160;Laerm;60045;51.792;10.938;2023-07-31T10:09:00;64.13;43.00;78.23;;
72160;Laerm;60045;51.792;10.938;2023-07-31T10:11:25;61.70;47.82;74.35;;
72160;Laerm;60045;51.792;10.938;2023-07-31T10:13:53;61.00;40.57;71.77;;
72160;Laerm;60045;51.792;10.938;2023-07-31T10:16:19;65.80;39.40;80.29;;
72160;Laerm;60045;51.792;10.938;2023-07-31T10:18:46;62.29;38.97;75.48;;
72160;Laerm;60045;51.792;10.938;2023-07-31T10:21:12;63.14;36.00;77.48;;
72160;Laerm;60045;51.792;10.938;2023-07-31T10:23:38;59.86;34.32;72.96;;
72160;Laerm;60045;51.792;10.938;2023-07-31T10:26:05;66.55;36.41;79.08;;
72160;Laerm;60045;51.792;10.938;2023-07-31T10:28:33;61.87;36.80;74.94;;
72160;Laerm;60045;51.792;10.938;2023-07-31T10:31:01;59.58;35.32;73.27;;
72160;Laerm;60045;51.792;10.938;2023-07-31T10:33:27;60.79;31.53;76.92;;
72160;Laerm;60045;51.792;10.938;2023-07-31T10:36:11;57.75;34.44;69.92;;
72160;Laerm;60045;51.792;10.938;2023-07-31T10:38:37;64.26;35.07;79.29;;
72160;Laerm;60045;51.792;10.938;2023-07-31T10:41:09;56.91;33.06;69.64;;
72160;Laerm;60045;51.792;10.938;2023-07-31T10:43:36;64.36;37.33;79.53;;
72160;Laerm;60045;51.792;10.938;2023-07-31T10:46:06;65.54;41.16;80.17;;
72160;Laerm;60045;51.792;10.938;2023-07-31T10:48:35;61.33;37.07;71.94;;
72160;Laerm;60045;51.792;10.938;2023-07-31T10:51:02;62.25;34.16;77.42;;
72160;Laerm;60045;51.792;10.938;2023-07-31T10:53:32;68.37;40.11;83.76;;
72160;Laerm;60045;51.792;10.938;2023-07-31T10:56:04;63.31;36.17;78.68;;
72160;Laerm;60045;51.792;10.938;2023-07-31T10:58:30;61.82;42.32;75.38;;
72160;Laerm;60045;51.792;10.938;2023-07-31T11:00:58;57.98;33.69;72.18;;
72160;Laerm;60045;51.792;10.938;2023-07-31T11:03:29;57.83;33.22;71.92;;
72160;Laerm;60045;51.792;10.938;2023-07-31T11:06:05;63.93;37.53;77.92;;
72160;Laerm;60045;51.792;10.938;2023-07-31T11:08:32;64.45;34.19;79.38;;
72160;Laerm;60045;51.792;10.938;2023-07-31T11:13:27;50.27;32.36;67.79;;
72160;Laerm;60045;51.792;10.938;2023-07-31T11:15:52;62.21;31.95;72.44;;
72160;Laerm;60045;51.792;10.938;2023-07-31T11:18:18;58.99;36.43;69.79;;
72160;Laerm;60045;51.792;10.938;2023-07-31T11:20:44;61.30;34.08;72.32;;
72160;Laerm;60045;51.792;10.938;2023-07-31T11:23:10;63.53;39.30;76.18;;
72160;Laerm;60045;51.792;10.938;2023-07-31T11:25:36;62.02;41.29;73.72;;
72160;Laerm;60045;51.792;10.938;2023-07-31T11:28:06;64.12;40.42;77.05;;
72160;Laerm;60045;51.792;10.938;2023-07-31T11:30:32;59.46;39.25;73.82;;
72160;Laerm;60045;51.792;10.938;2023-07-31T11:32:59;63.03;41.56;75.46;;
72160;Laerm;60045;51.792;10.938;2023-07-31T11:35:24;62.40;41.19;75.55;;
72160;Laerm;60045;51.792;10.938;2023-07-31T11:37:50;57.29;42.11;69.97;;
72160;Laerm;60045;51.792;10.938;2023-07-31T11:40:16;60.35;41.96;71.58;;
72160;Laerm;60045;51.792;10.938;2023-07-31T11:42:42;59.95;40.97;72.75;;
72160;Laerm;60045;51.792;10.938;2023-07-31T11:45:08;57.52;40.34;71.09;;
72160;Laerm;60045;51.792;10.938;2023-07-31T11:47:35;62.89;41.68;75.18;;
72160;Laerm;60045;51.792;10.938;2023-07-31T11:50:01;63.83;39.26;78.64;;
72160;Laerm;60045;51.792;10.938;2023-07-31T11:52:28;65.23;41.33;77.43;;
72160;Laerm;60045;51.792;10.938;2023-07-31T11:54:55;55.63;36.78;72.53;;
72160;Laerm;60045;51.792;10.938;2023-07-31T11:57:21;63.13;37.04;72.18;;
72160;Laerm;60045;51.792;10.938;2023-07-31T11:59:48;59.83;37.07;74.80;;
72160;Laerm;60045;51.792;10.938;2023-07-31T12:02:14;62.55;37.15;74.40;;
72160;Laerm;60045;51.792;10.938;2023-07-31T12:04:39;59.03;40.91;70.41;;
72160;Laerm;60045;51.792;10.938;2023-07-31T12:07:05;59.55;37.97;73.62;;
72160;Laerm;60045;51.792;10.938;2023-07-31T12:09:31;66.69;41.72;79.80;;
72160;Laerm;60045;51.792;10.938;2023-07-31T12:11:57;59.61;39.12;72.09;;
72160;Laerm;60045;51.792;10.938;2023-07-31T12:14:26;65.07;38.57;78.01;;
72160;Laerm;60045;51.792;10.938;2023-07-31T12:16:56;61.12;38.97;74.76;;
72160;Laerm;60045;51.792;10.938;2023-07-31T12:19:22;61.18;39.05;75.49;;
72160;Laerm;60045;51.792;10.938;2023-07-31T12:21:48;60.16;41.95;73.29;;
72160;Laerm;60045;51.792;10.938;2023-07-31T12:24:14;61.78;41.38;72.19;;
72160;Laerm;60045;51.792;10.938;2023-07-31T12:26:40;58.60;40.80;70.89;;
72160;Laerm;60045;51.792;10.938;2023-07-31T12:29:06;62.36;42.72;74.65;;
72160;Laerm;60045;51.792;10.938;2023-07-31T12:31:33;59.92;40.60;72.20;;
72160;Laerm;60045;51.792;10.938;2023-07-31T12:33:59;64.74;42.61;81.09;;
72160;Laerm;60045;51.792;10.938;2023-07-31T12:36:26;59.54;42.97;73.40;;
72160;Laerm;60045;51.792;10.938;2023-07-31T12:38:53;63.66;43.27;78.97;;
72160;Laerm;60045;51.792;10.938;2023-07-31T12:41:18;59.15;41.44;70.18;;
72160;Laerm;60045;51.792;10.938;2023-07-31T12:43:44;62.80;40.93;77.83;;
72160;Laerm;60045;51.792;10.938;2023-07-31T12:46:11;61.53;38.53;77.62;;
72160;Laerm;60045;51.792;10.938;2023-07-31T12:48:37;56.89;40.03;70.13;;
72160;Laerm;60045;51.792;10.938;2023-07-31T12:51:03;64.91;44.30;77.16;;
72160;Laerm;60045;51.792;10.938;2023-07-31T12:53:29;67.28;40.42;83.81;;
72160;Laerm;60045;51.792;10.938;2023-07-31T12:55:55;64.71;42.92;76.61;;
72160;Laerm;60045;51.792;10.938;2023-07-31T12:58:21;61.44;41.66;72.32;;
72160;Laerm;60045;51.792;10.938;2023-07-31T13:00:47;62.52;40.81;73.81;;
72160;Laerm;60045;51.792;10.938;2023-07-31T13:03:12;63.21;41.16;73.93;;
72160;Laerm;60045;51.792;10.938;2023-07-31T13:05:38;62.96;39.08;73.56;;
72160;Laerm;60045;51.792;10.938;2023-07-31T13:08:04;55.91;38.86;70.07;;
72160;Laerm;60045;51.792;10.938;2023-07-31T13:10:30;62.58;42.18;72.11;;
72160;Laerm;60045;51.792;10.938;2023-07-31T13:12:55;63.48;42.61;79.58;;
72160;Laerm;60045;51.792;10.938;2023-07-31T13:15:21;61.39;40.98;75.45;;
72160;Laerm;60045;51.792;10.938;2023-07-31T13:17:47;57.66;41.13;73.47;;
72160;Laerm;60045;51.792;10.938;2023-07-31T13:20:13;62.12;40.44;75.48;;
72160;Laerm;60045;51.792;10.938;2023-07-31T13:22:39;61.40;40.10;74.94;;
72160;Laerm;60045;51.792;10.938;2023-07-31T13:25:05;64.92;40.73;77.49;;
72160;Laerm;60045;51.792;10.938;2023-07-31T13:27:31;64.95;42.76;80.62;;
72160;Laerm;60045;51.792;10.938;2023-07-31T13:29:57;62.75;43.25;74.49;;
72160;Laerm;60045;51.792;10.938;2023-07-31T13:32:22;60.59;41.70;71.61;;
72160;Laerm;60045;51.792;10.938;2023-07-31T13:34:48;59.21;42.43;69.33;;
72160;Laerm;60045;51.792;10.938;2023-07-31T13:37:14;58.68;41.30;71.79;;
72160;Laerm;60045;51.792;10.938;2023-07-31T13:39:40;66.46;44.02;79.47;;